createdAt,value
2022-12-03T00:00:32.159Z,101588.56
2022-12-03T00:03:01.749Z,101594.16
2022-12-03T00:05:32.930Z,101585.16
2022-12-03T00:08:02.309Z,101582.13
2022-12-03T00:10:31.753Z,101597.38
2022-12-03T00:13:00.959Z,101597.72
2022-12-03T00:15:30.302Z,101594.81
2022-12-03T00:17:59.770Z,101587.81
2022-12-03T00:20:29.802Z,101592.88
2022-12-03T00:23:00.533Z,101592.00
2022-12-03T00:25:30.083Z,101578.78
2022-12-03T00:27:59.422Z,101576.88
2022-12-03T00:30:28.724Z,101578.69
2022-12-03T00:32:58.345Z,101584.34
2022-12-03T00:35:27.690Z,101587.41
2022-12-03T00:37:57.171Z,101580.50
2022-12-03T00:40:27.908Z,101586.84
2022-12-03T00:42:57.180Z,101580.50
2022-12-03T00:45:26.534Z,101582.13
2022-12-03T00:47:55.821Z,101575.22
2022-12-03T00:50:25.155Z,101580.63
2022-12-03T00:52:54.569Z,101579.34
2022-12-03T00:55:23.813Z,101567.72
2022-12-03T00:57:54.432Z,101579.00
2022-12-03T01:00:25.445Z,101570.63
2022-12-03T01:02:55.060Z,101572.00
2022-12-03T01:05:24.440Z,101570.06
2022-12-03T01:07:53.805Z,101572.22
2022-12-03T01:10:23.174Z,101557.81
2022-12-03T01:12:53.857Z,101579.50
2022-12-03T01:15:23.179Z,101579.69
2022-12-03T01:17:54.463Z,101582.50
2022-12-03T01:20:23.802Z,101585.75
2022-12-03T01:22:53.268Z,101580.50
2022-12-03T01:25:22.583Z,101580.59
2022-12-03T01:27:54.525Z,101588.06
2022-12-03T01:30:23.865Z,101587.66
2022-12-03T01:32:52.112Z,101581.44
2022-12-03T01:35:21.392Z,101584.31
2022-12-03T01:37:50.652Z,101586.81
2022-12-03T01:40:22.666Z,101583.75
2022-12-03T01:42:51.919Z,101588.34
2022-12-03T01:45:25.211Z,101578.06
2022-12-03T01:47:54.601Z,101590.34
2022-12-03T01:50:31.722Z,101593.69
2022-12-03T01:53:05.158Z,101589.91
2022-12-03T01:55:34.689Z,101593.69
2022-12-03T01:58:04.524Z,101591.72
2022-12-03T02:00:35.279Z,101592.09
2022-12-03T02:03:09.743Z,101596.69
2022-12-03T02:05:39.686Z,101594.97
2022-12-03T02:08:31.112Z,101594.88
2022-12-03T02:11:04.346Z,101592.63
2022-12-03T02:13:33.842Z,101601.00
2022-12-03T02:16:05.141Z,101586.78
2022-12-03T02:18:34.645Z,101560.56
2022-12-03T02:21:12.596Z,101575.78
2022-12-03T02:23:49.041Z,101591.16
2022-12-03T02:26:20.362Z,101580.91
2022-12-03T02:28:49.841Z,101593.19
2022-12-03T02:31:19.607Z,101575.97
2022-12-03T02:33:49.672Z,101558.38
2022-12-03T02:36:19.502Z,101550.59
2022-12-03T02:38:51.169Z,101587.91
2022-12-03T02:41:49.233Z,101557.47
2022-12-03T02:44:18.934Z,101541.97
2022-12-03T02:46:48.889Z,101570.50
2022-12-03T02:49:18.775Z,101597.81
2022-12-03T02:51:49.179Z,101595.25
2022-12-03T02:54:18.953Z,101591.53
2022-12-03T02:56:50.224Z,101574.13
2022-12-03T02:59:19.941Z,101593.63
2022-12-03T03:01:49.547Z,101608.16
2022-12-03T03:04:19.621Z,101568.44
2022-12-03T03:06:49.223Z,101598.66
2022-12-03T03:09:19.382Z,101569.09
2022-12-03T03:11:50.272Z,101577.78
2022-12-03T03:14:19.851Z,101567.41
2022-12-03T03:16:56.260Z,101542.44
2022-12-03T03:19:27.456Z,101589.09
2022-12-03T03:21:56.977Z,101606.50
2022-12-03T03:24:27.883Z,101560.06
2022-12-03T03:26:58.849Z,101565.94
2022-12-03T03:29:28.582Z,101555.03
2022-12-03T03:31:59.530Z,101580.88
2022-12-03T03:34:29.697Z,101533.47
2022-12-03T03:36:59.503Z,101570.13
2022-12-03T03:39:29.226Z,101551.28
2022-12-03T03:42:00.463Z,101552.03
2022-12-03T03:44:30.272Z,101567.47
2022-12-03T03:47:00.103Z,101550.94
2022-12-03T03:49:30.148Z,101562.91
2022-12-03T03:52:00.349Z,101579.63
2022-12-03T03:54:29.812Z,101564.88
2022-12-03T03:57:01.380Z,101567.75
2022-12-03T03:59:31.339Z,101518.63
2022-12-03T04:02:01.062Z,101558.66
2022-12-03T04:04:35.940Z,101551.59
2022-12-03T04:07:05.572Z,101519.50
2022-12-03T04:09:35.209Z,101515.00
2022-12-03T04:12:23.851Z,101551.78
2022-12-03T04:14:53.719Z,101558.84
2022-12-03T04:17:23.383Z,101572.38
2022-12-03T04:19:52.922Z,101536.50
2022-12-03T04:22:39.678Z,101520.28
2022-12-03T04:25:24.503Z,101566.59
2022-12-03T04:28:17.448Z,101565.94
2022-12-03T04:30:46.854Z,101548.06
2022-12-03T04:33:36.912Z,101547.47
2022-12-03T04:36:06.782Z,101548.84
2022-12-03T04:38:36.384Z,101550.13
2022-12-03T04:41:06.927Z,101518.69
2022-12-03T04:43:59.069Z,101529.47
2022-12-03T04:46:29.003Z,101521.91
2022-12-03T04:48:58.589Z,101525.09
2022-12-03T04:51:28.201Z,101512.41
2022-12-03T04:53:58.010Z,101529.22
2022-12-03T04:56:27.722Z,101523.28
2022-12-03T04:58:58.832Z,101546.56
2022-12-03T05:01:28.799Z,101557.59
2022-12-03T05:04:00.292Z,101522.94
2022-12-03T05:06:30.919Z,101491.25
2022-12-03T05:09:03.532Z,101510.16
2022-12-03T05:11:33.521Z,101528.06
2022-12-03T05:14:04.861Z,101552.34
2022-12-03T05:16:36.559Z,101529.09
2022-12-03T05:19:09.103Z,101559.88
2022-12-03T05:21:38.723Z,101551.06
2022-12-03T05:24:08.669Z,101545.44
2022-12-03T05:26:38.453Z,101515.50
2022-12-03T05:29:11.261Z,101534.78
2022-12-03T05:31:52.615Z,101559.66
2022-12-03T05:34:24.550Z,101534.59
2022-12-03T05:36:54.141Z,101542.38
2022-12-03T05:39:23.650Z,101523.06
2022-12-03T05:42:12.861Z,101542.13
2022-12-03T05:44:51.645Z,101522.75
2022-12-03T05:47:21.301Z,101486.34
2022-12-03T05:49:50.748Z,101524.78
2022-12-03T05:52:20.449Z,101512.78
2022-12-03T05:54:50.171Z,101527.91
2022-12-03T05:57:22.831Z,101521.00
2022-12-03T05:59:54.822Z,101545.38
2022-12-03T06:02:24.498Z,101516.69
2022-12-03T06:04:54.495Z,101547.00
2022-12-03T06:07:26.519Z,101537.81
2022-12-03T06:09:56.243Z,101511.31
2022-12-03T06:12:25.911Z,101510.84
2022-12-03T06:14:57.410Z,101522.94
2022-12-03T06:17:27.232Z,101526.81
2022-12-03T06:19:56.775Z,101510.56
2022-12-03T06:22:26.273Z,101510.00
2022-12-03T06:25:02.180Z,101510.03
2022-12-03T06:27:36.039Z,101486.31
2022-12-03T06:30:11.294Z,101521.63
2022-12-03T06:32:41.027Z,101515.66
2022-12-03T06:35:12.870Z,101547.53
2022-12-03T06:37:42.862Z,101529.41
2022-12-03T06:40:13.605Z,101544.13
2022-12-03T06:42:43.216Z,101505.25
2022-12-03T06:45:14.494Z,101505.38
2022-12-03T06:47:44.115Z,101511.44
2022-12-03T06:50:14.218Z,101492.50
2022-12-03T06:52:43.889Z,101511.38
2022-12-03T06:55:13.563Z,101548.38
2022-12-03T06:57:43.405Z,101546.53
2022-12-03T07:00:15.953Z,101547.28
2022-12-03T07:02:45.829Z,101496.16
2022-12-03T07:05:16.485Z,101530.84
2022-12-03T07:07:50.446Z,101523.41
2022-12-03T07:10:20.381Z,101524.72
2022-12-03T07:12:50.062Z,101514.56
2022-12-03T07:15:21.393Z,101532.50
2022-12-03T07:17:51.363Z,101499.78
2022-12-03T07:20:23.945Z,101503.22
2022-12-03T07:22:53.471Z,101530.94
2022-12-03T07:25:23.910Z,101508.03
2022-12-03T07:27:53.671Z,101516.56
2022-12-03T07:30:25.954Z,101486.88
2022-12-03T07:32:55.852Z,101512.34
2022-12-03T07:35:25.664Z,101533.28
2022-12-03T07:37:55.245Z,101531.13
2022-12-03T07:40:24.767Z,101471.25
2022-12-03T07:42:54.564Z,101518.16
2022-12-03T07:45:25.529Z,101496.56
2022-12-03T07:47:55.211Z,101482.22
2022-12-03T07:50:24.753Z,101530.84
2022-12-03T07:52:55.036Z,101528.66
2022-12-03T07:55:25.499Z,101511.44
2022-12-03T07:57:55.152Z,101515.03
2022-12-03T08:00:29.278Z,101524.66
2022-12-03T08:02:58.753Z,101509.63
2022-12-03T08:05:31.854Z,101507.38
2022-12-03T08:08:01.537Z,101521.19
2022-12-03T08:10:31.082Z,101525.88
2022-12-03T08:13:01.309Z,101517.59
2022-12-03T08:15:37.291Z,101519.09
2022-12-03T08:18:16.085Z,101533.72
2022-12-03T08:20:48.521Z,101506.59
2022-12-03T08:23:19.959Z,101509.09
2022-12-03T08:25:50.972Z,101507.19
2022-12-03T08:28:22.494Z,101527.34
2022-12-03T08:31:02.679Z,101524.47
2022-12-03T08:33:35.587Z,101505.13
2022-12-03T08:36:15.049Z,101525.03
2022-12-03T08:38:50.882Z,101471.66
2022-12-03T08:41:41.731Z,101499.63
2022-12-03T08:44:24.032Z,101467.34
2022-12-03T08:47:08.635Z,101511.66
2022-12-03T08:49:38.956Z,101506.41
2022-12-03T08:52:14.943Z,101525.50
2022-12-03T08:54:45.244Z,101495.69
2022-12-03T08:57:28.732Z,101490.25
2022-12-03T09:00:05.372Z,101482.78
2022-12-03T09:02:36.553Z,101482.56
2022-12-03T09:05:17.830Z,101526.81
2022-12-03T09:07:47.656Z,101484.72
2022-12-03T09:10:18.200Z,101487.13
2022-12-03T09:12:48.119Z,101498.03
2022-12-03T09:15:17.823Z,101492.91
2022-12-03T09:17:49.207Z,101518.31
2022-12-03T09:20:19.153Z,101478.72
2022-12-03T09:22:48.962Z,101440.22
2022-12-03T09:25:18.616Z,101485.44
2022-12-03T09:27:48.383Z,101502.56
2022-12-03T09:30:18.473Z,101468.75
2022-12-03T09:32:49.567Z,101496.47
2022-12-03T09:35:22.271Z,101462.38
2022-12-03T09:37:52.021Z,101480.19
2022-12-03T09:40:22.920Z,101489.81
2022-12-03T09:42:54.320Z,101512.44
2022-12-03T09:45:24.041Z,101471.38
2022-12-03T09:47:56.409Z,101518.00
2022-12-03T09:50:28.813Z,101456.06
2022-12-03T09:53:04.523Z,101511.66
2022-12-03T09:55:34.606Z,101457.78
2022-12-03T09:58:04.704Z,101470.75
2022-12-03T10:00:34.671Z,101496.25
2022-12-03T10:03:08.860Z,101494.84
2022-12-03T10:05:41.477Z,101452.69
2022-12-03T10:08:18.565Z,101487.38
2022-12-03T10:10:53.226Z,101437.22
2022-12-03T10:13:26.668Z,101457.47
2022-12-03T10:16:01.639Z,101424.00
2022-12-03T10:18:39.979Z,101476.22
2022-12-03T10:21:18.546Z,101444.25
2022-12-03T10:23:55.192Z,101436.91
2022-12-03T10:26:42.380Z,101442.28
2022-12-03T10:29:26.993Z,101450.25
2022-12-03T10:32:02.941Z,101459.03
2022-12-03T10:34:43.040Z,101422.78
2022-12-03T10:37:19.813Z,101428.66
2022-12-03T10:40:01.510Z,101454.25
2022-12-03T10:42:35.748Z,101417.09
2022-12-03T10:45:16.666Z,101428.66
2022-12-03T10:48:07.358Z,101458.09
2022-12-03T10:50:38.723Z,101415.25
2022-12-03T10:53:11.674Z,101409.56
2022-12-03T10:55:44.249Z,101397.88
2022-12-03T10:58:24.913Z,101426.53
2022-12-03T11:00:57.353Z,101437.50
2022-12-03T11:03:29.713Z,101384.16
2022-12-03T11:06:02.990Z,101423.00
2022-12-03T11:08:37.568Z,101436.84
2022-12-03T11:11:09.695Z,101424.28
2022-12-03T11:13:51.560Z,101361.72
2022-12-03T11:16:54.484Z,101428.47
2022-12-03T11:19:45.141Z,101403.16
2022-12-03T11:22:39.819Z,101414.19
2022-12-03T11:25:57.810Z,101422.66
2022-12-03T11:28:55.321Z,101400.34
2022-12-03T11:31:40.157Z,101427.28
2022-12-03T11:34:48.296Z,101373.00
2022-12-03T11:37:28.581Z,101365.91
2022-12-03T11:40:28.102Z,101345.28
2022-12-03T11:42:57.962Z,101341.34
2022-12-03T11:45:34.241Z,101350.66
2022-12-03T11:48:17.580Z,101395.00
2022-12-03T11:50:55.903Z,101366.66
2022-12-03T11:53:28.098Z,101334.28
2022-12-03T11:56:09.337Z,101385.88
2022-12-03T11:58:41.114Z,101361.75
2022-12-03T12:01:11.563Z,101364.84
2022-12-03T12:03:48.208Z,101371.69
2022-12-03T12:06:19.957Z,101389.63
2022-12-03T12:09:00.423Z,101359.91
2022-12-03T12:11:33.523Z,101354.13
2022-12-03T12:14:06.751Z,101327.09
2022-12-03T12:16:46.234Z,101331.59
2022-12-03T12:19:43.395Z,101333.09
2022-12-03T12:22:19.053Z,101332.88
2022-12-03T12:24:52.955Z,101352.41
2022-12-03T12:27:31.122Z,101368.28
2022-12-03T12:30:05.351Z,101336.31
2022-12-03T12:32:36.593Z,101328.34
2022-12-03T12:35:18.832Z,101362.91
2022-12-03T12:37:59.089Z,101313.97
2022-12-03T12:40:33.521Z,101324.28
2022-12-03T12:43:15.292Z,101340.38
2022-12-03T12:45:51.693Z,101325.47
2022-12-03T12:48:28.532Z,101320.44
2022-12-03T12:51:07.948Z,101353.25
2022-12-03T12:53:40.760Z,101339.31
2022-12-03T12:56:21.206Z,101327.94
2022-12-03T12:58:55.697Z,101319.59
2022-12-03T13:01:28.782Z,101335.00
2022-12-03T13:03:59.864Z,101356.81
2022-12-03T13:06:31.792Z,101353.91
2022-12-03T13:09:01.736Z,101324.25
2022-12-03T13:11:42.398Z,101306.91
2022-12-03T13:14:17.952Z,101307.13
2022-12-03T13:16:48.924Z,101272.19
2022-12-03T13:19:26.083Z,101268.31
2022-12-03T13:21:57.590Z,101341.34
2022-12-03T13:24:39.304Z,101311.97
2022-12-03T13:27:25.995Z,101291.47
2022-12-03T13:30:01.589Z,101300.06
2022-12-03T13:32:49.410Z,101318.06
2022-12-03T13:35:30.426Z,101276.91
2022-12-03T13:38:00.899Z,101286.53
2022-12-03T13:40:32.142Z,101283.63
2022-12-03T13:43:06.159Z,101285.03
2022-12-03T13:45:41.381Z,101278.19
2022-12-03T13:48:21.524Z,101287.94
2022-12-03T13:50:52.372Z,101261.47
2022-12-03T13:53:24.161Z,101301.75
2022-12-03T13:55:58.162Z,101279.03
2022-12-03T13:58:27.895Z,101276.03
2022-12-03T14:00:59.031Z,101277.19
2022-12-03T14:03:28.852Z,101303.34
2022-12-03T14:06:00.482Z,101288.25
2022-12-03T14:08:30.211Z,101277.13
2022-12-03T14:11:02.581Z,101263.16
2022-12-03T14:13:32.453Z,101264.13
2022-12-03T14:16:12.522Z,101269.59
2022-12-03T14:18:42.373Z,101256.09
2022-12-03T14:21:12.030Z,101243.56
2022-12-03T14:23:42.191Z,101249.78
2022-12-03T14:26:16.650Z,101280.53
2022-12-03T14:28:46.474Z,101304.56
2022-12-03T14:31:17.991Z,101255.47
2022-12-03T14:33:47.732Z,101250.41
2022-12-03T14:36:19.807Z,101279.59
2022-12-03T14:38:49.453Z,101278.59
2022-12-03T14:41:38.300Z,101296.63
2022-12-03T14:44:08.012Z,101277.75
2022-12-03T14:46:39.309Z,101295.25
2022-12-03T14:49:08.973Z,101256.72
2022-12-03T14:51:38.693Z,101270.25
2022-12-03T14:54:12.781Z,101290.50
2022-12-03T14:56:42.650Z,101301.44
2022-12-03T14:59:12.179Z,101294.16
2022-12-03T15:01:43.380Z,101297.47
2022-12-03T15:04:12.910Z,101279.25
2022-12-03T15:06:42.630Z,101260.91
2022-12-03T15:09:12.679Z,101276.47
2022-12-03T15:11:46.144Z,101294.81
2022-12-03T15:14:16.871Z,101286.66
2022-12-03T15:16:48.143Z,101298.13
2022-12-03T15:19:18.573Z,101315.94
2022-12-03T15:21:49.791Z,101285.47
2022-12-03T15:24:19.390Z,101296.19
2022-12-03T15:26:49.695Z,101297.03
2022-12-03T15:29:19.522Z,101295.97
2022-12-03T15:31:50.927Z,101261.69
2022-12-03T15:34:23.010Z,101282.34
2022-12-03T15:36:53.360Z,101299.09
2022-12-03T15:39:23.513Z,101289.88
2022-12-03T15:41:55.758Z,101295.44
2022-12-03T15:44:25.448Z,101263.38
2022-12-03T15:46:56.502Z,101268.22
2022-12-03T15:49:26.132Z,101291.25
2022-12-03T15:51:56.282Z,101269.38
2022-12-03T15:54:26.235Z,101292.56
2022-12-03T15:56:57.576Z,101286.44
2022-12-03T15:59:29.771Z,101292.44
2022-12-03T16:02:00.867Z,101291.03
2022-12-03T16:04:30.670Z,101293.19
2022-12-03T16:07:00.250Z,101255.03
2022-12-03T16:09:29.924Z,101295.97
2022-12-03T16:11:59.743Z,101292.34
2022-12-03T16:14:29.270Z,101276.91
2022-12-03T16:17:00.413Z,101279.88
2022-12-03T16:19:29.922Z,101283.75
2022-12-03T16:22:00.633Z,101301.34
2022-12-03T16:24:30.524Z,101288.47
2022-12-03T16:27:00.874Z,101257.59
2022-12-03T16:29:33.295Z,101265.75
2022-12-03T16:32:04.495Z,101260.41
2022-12-03T16:34:36.963Z,101223.50
2022-12-03T16:37:07.071Z,101255.75
2022-12-03T16:39:37.855Z,101240.09
2022-12-03T16:42:13.598Z,101250.41
2022-12-03T16:45:15.519Z,101264.88
2022-12-03T16:47:46.493Z,101219.97
2022-12-03T16:50:24.326Z,101275.06
2022-12-03T16:53:00.843Z,101266.19
2022-12-03T16:55:31.280Z,101237.00
2022-12-03T16:58:01.068Z,101236.78
2022-12-03T17:00:30.969Z,101239.69
2022-12-03T17:03:02.766Z,101242.91
2022-12-03T17:05:32.302Z,101274.44
2022-12-03T17:08:01.870Z,101255.88
2022-12-03T17:10:31.681Z,101280.09
2022-12-03T17:13:11.002Z,101263.50
2022-12-03T17:15:41.172Z,101255.88
2022-12-03T17:18:12.250Z,101262.53
2022-12-03T17:20:41.764Z,101279.47
2022-12-03T17:23:12.218Z,101274.00
2022-12-03T17:25:44.034Z,101253.84
2022-12-03T17:28:13.388Z,101274.09
2022-12-03T17:30:43.045Z,101270.91
2022-12-03T17:33:13.881Z,101271.00
2022-12-03T17:35:43.554Z,101268.66
2022-12-03T17:38:15.404Z,101264.16
2022-12-03T17:40:44.819Z,101228.53
2022-12-03T17:43:14.253Z,101270.56
2022-12-03T17:45:43.953Z,101271.44
2022-12-03T17:48:14.808Z,101252.16
2022-12-03T17:50:44.466Z,101207.66
2022-12-03T17:53:14.271Z,101210.63
2022-12-03T17:55:45.186Z,101258.34
2022-12-03T17:58:15.402Z,101209.06
2022-12-03T18:00:45.519Z,101211.19
2022-12-03T18:03:17.065Z,101268.88
2022-12-03T18:05:46.655Z,101248.28
2022-12-03T18:08:17.167Z,101246.16
2022-12-03T18:10:46.819Z,101226.28
2022-12-03T18:13:16.633Z,101227.25
2022-12-03T18:15:48.612Z,101258.88
2022-12-03T18:18:22.112Z,101269.16
2022-12-03T18:20:53.122Z,101244.97
2022-12-03T18:23:22.683Z,101246.78
2022-12-03T18:25:52.250Z,101235.09
2022-12-03T18:28:26.647Z,101228.53
2022-12-03T18:30:56.610Z,101193.28
2022-12-03T18:33:27.900Z,101203.06
2022-12-03T18:35:59.652Z,101210.84
2022-12-03T18:38:34.200Z,101223.59
2022-12-03T18:41:04.316Z,101260.19
2022-12-03T18:43:34.325Z,101198.97
2022-12-03T18:46:05.831Z,101201.44
2022-12-03T18:48:37.021Z,101229.72
2022-12-03T18:51:14.911Z,101219.00
2022-12-03T18:53:45.883Z,101233.81
2022-12-03T18:56:15.967Z,101192.13
2022-12-03T18:58:45.986Z,101221.56
2022-12-03T19:01:17.854Z,101240.22
2022-12-03T19:03:49.695Z,101213.31
2022-12-03T19:06:22.314Z,101208.38
2022-12-03T19:08:54.473Z,101218.25
2022-12-03T19:11:24.783Z,101246.03
2022-12-03T19:13:54.513Z,101197.56
2022-12-03T19:16:24.375Z,101216.88
2022-12-03T19:18:56.568Z,101233.59
2022-12-03T19:21:30.783Z,101203.16
2022-12-03T19:24:23.843Z,101216.22
2022-12-03T19:26:55.652Z,101245.81
2022-12-03T19:29:26.361Z,101226.06
2022-12-03T19:31:56.131Z,101227.81
2022-12-03T19:34:27.732Z,101209.56
2022-12-03T19:36:57.910Z,101229.19
2022-12-03T19:39:28.572Z,101233.25
2022-12-03T19:41:58.252Z,101216.13
2022-12-03T19:44:30.762Z,101247.50
2022-12-03T19:47:00.540Z,101220.19
2022-12-03T19:49:34.681Z,101229.50
2022-12-03T19:52:05.549Z,101227.59
2022-12-03T19:54:35.252Z,101236.28
2022-12-03T19:57:04.791Z,101249.88
2022-12-03T19:59:36.853Z,101244.53
2022-12-03T20:02:06.609Z,101241.00
2022-12-03T20:04:38.123Z,101222.88
2022-12-03T20:07:15.617Z,101236.16
2022-12-03T20:09:45.324Z,101239.03
2022-12-03T20:12:14.980Z,101238.06
2022-12-03T20:14:45.412Z,101245.47
2022-12-03T20:17:15.059Z,101226.72
2022-12-03T20:19:48.722Z,101237.22
2022-12-03T20:22:18.731Z,101233.91
2022-12-03T20:24:50.943Z,101202.09
2022-12-03T20:27:22.966Z,101217.31
2022-12-03T20:29:53.358Z,101199.28
2022-12-03T20:32:23.364Z,101210.13
2022-12-03T20:34:54.525Z,101209.34
2022-12-03T20:37:24.227Z,101241.31
2022-12-03T20:39:54.395Z,101234.25
2022-12-03T20:42:24.243Z,101243.22
2022-12-03T20:44:54.473Z,101235.09
2022-12-03T20:47:24.062Z,101229.50
2022-12-03T20:49:55.169Z,101238.75
2022-12-03T20:52:25.221Z,101218.03
2022-12-03T20:54:54.883Z,101201.44
2022-12-03T20:57:24.660Z,101197.16
2022-12-03T20:59:56.168Z,101234.44
2022-12-03T21:02:25.950Z,101227.13
2022-12-03T21:04:57.243Z,101184.25
2022-12-03T21:07:26.904Z,101210.84
2022-12-03T21:09:58.417Z,101195.19
2022-12-03T21:12:31.796Z,101234.84
2022-12-03T21:15:01.318Z,101222.84
2022-12-03T21:17:30.865Z,101202.72
2022-12-03T21:20:02.059Z,101237.53
2022-12-03T21:22:31.983Z,101212.63
2022-12-03T21:25:01.840Z,101194.66
2022-12-03T21:27:31.453Z,101176.13
2022-12-03T21:30:01.152Z,101221.44
2022-12-03T21:32:31.140Z,101174.19
2022-12-03T21:35:04.400Z,101214.69
2022-12-03T21:37:34.214Z,101180.84
2022-12-03T21:40:04.303Z,101144.41
2022-12-03T21:42:35.941Z,101198.19
2022-12-03T21:45:09.565Z,101212.56
2022-12-03T21:47:39.538Z,101224.78
2022-12-03T21:50:12.848Z,101178.47
2022-12-03T21:52:42.835Z,101218.78
2022-12-03T21:55:12.490Z,101221.13
2022-12-03T21:57:41.995Z,101230.97
2022-12-03T22:00:12.577Z,101224.16
2022-12-03T22:02:42.158Z,101211.25
2022-12-03T22:05:13.376Z,101225.22
2022-12-03T22:07:43.924Z,101229.78
2022-12-03T22:10:14.127Z,101211.91
2022-12-03T22:12:43.699Z,101212.84
2022-12-03T22:15:18.385Z,101212.88
2022-12-03T22:17:49.370Z,101208.25
2022-12-03T22:20:20.517Z,101220.03
2022-12-03T22:22:50.497Z,101178.03
2022-12-03T22:25:20.540Z,101187.22
2022-12-03T22:27:50.118Z,101210.91
2022-12-03T22:30:19.893Z,101206.97
2022-12-03T22:32:50.379Z,101213.78
2022-12-03T22:35:21.921Z,101204.97
2022-12-03T22:37:51.417Z,101215.03
2022-12-03T22:40:21.125Z,101206.25
2022-12-03T22:42:51.754Z,101194.66
2022-12-03T22:45:21.370Z,101199.00
2022-12-03T22:47:51.074Z,101202.47
2022-12-03T22:50:22.484Z,101159.81
2022-12-03T22:52:53.988Z,101196.91
2022-12-03T22:55:23.623Z,101150.16
2022-12-03T22:57:53.173Z,101177.66
2022-12-03T23:00:33.444Z,101130.56
2022-12-03T23:03:03.751Z,101199.50
2022-12-03T23:05:38.858Z,101181.22
2022-12-03T23:08:09.783Z,101191.25
2022-12-03T23:10:41.092Z,101155.16
2022-12-03T23:13:11.552Z,101161.53
2022-12-03T23:15:46.871Z,101192.69
2022-12-03T23:18:16.990Z,101154.56
2022-12-03T23:20:49.778Z,101196.03
2022-12-03T23:23:19.584Z,101184.34
2022-12-03T23:25:58.484Z,101167.72
2022-12-03T23:28:28.503Z,101173.44
2022-12-03T23:30:58.360Z,101146.47
2022-12-03T23:33:32.955Z,101143.06
2022-12-03T23:36:09.027Z,101157.44
2022-12-03T23:38:38.913Z,101159.03
2022-12-03T23:41:11.047Z,101162.84
2022-12-03T23:43:41.394Z,101131.31
2022-12-03T23:46:13.221Z,101164.91
2022-12-03T23:48:43.314Z,101155.50
2022-12-03T23:51:16.772Z,101159.56
2022-12-03T23:53:46.382Z,101154.63
2022-12-03T23:56:17.989Z,101152.50
2022-12-03T23:58:48.333Z,101133.88
